createdAt,value
2019-03-12T00:00:46.331Z,91.00
2019-03-12T00:03:15.181Z,90.70
2019-03-12T00:05:44.116Z,90.80
2019-03-12T00:08:12.984Z,90.70
2019-03-12T00:10:41.893Z,90.40
2019-03-12T00:13:10.824Z,90.30
2019-03-12T00:15:39.699Z,90.20
2019-03-12T00:18:08.522Z,90.00
2019-03-12T00:20:37.463Z,90.00
2019-03-12T00:23:06.336Z,90.00
2019-03-12T00:25:35.202Z,89.70
2019-03-12T00:28:04.084Z,89.80
2019-03-12T00:30:32.936Z,90.10
2019-03-12T00:33:01.826Z,90.20
2019-03-12T00:35:30.761Z,90.30
2019-03-12T00:37:59.602Z,90.30
2019-03-12T00:40:28.465Z,90.50
2019-03-12T00:42:57.444Z,90.20
2019-03-12T00:45:26.329Z,90.50
2019-03-12T00:48:04.159Z,90.80
2019-03-12T00:50:33.039Z,90.70
2019-03-12T00:53:01.899Z,90.60
2019-03-12T00:55:30.856Z,90.60
2019-03-12T00:57:59.745Z,90.20
2019-03-12T01:00:28.553Z,90.20
2019-03-12T01:02:57.882Z,90.10
2019-03-12T01:05:26.788Z,90.00
2019-03-12T01:07:55.655Z,90.00
2019-03-12T01:10:24.551Z,90.10
2019-03-12T01:12:53.457Z,90.20
2019-03-12T01:15:22.319Z,90.00
2019-03-12T01:17:51.232Z,90.00
2019-03-12T01:20:20.081Z,89.80
2019-03-12T01:22:48.953Z,89.30
2019-03-12T01:25:17.839Z,90.00
2019-03-12T01:27:46.702Z,90.00
2019-03-12T01:30:17.625Z,90.00
2019-03-12T01:32:46.939Z,89.70
2019-03-12T01:35:15.876Z,89.70
2019-03-12T01:37:44.774Z,90.20
2019-03-12T01:40:15.000Z,90.20
2019-03-12T01:42:43.838Z,90.10
2019-03-12T01:45:14.566Z,90.20
2019-03-12T01:47:43.459Z,90.00
2019-03-12T01:50:15.658Z,89.80
2019-03-12T01:52:44.468Z,89.60
2019-03-12T01:55:19.697Z,89.40
2019-03-12T01:57:48.519Z,89.60
2019-03-12T02:03:14.372Z,90.00
2019-03-12T02:05:43.240Z,90.10
2019-03-12T02:08:12.124Z,90.30
2019-03-12T02:10:41.073Z,90.00
2019-03-12T02:13:10.840Z,90.00
2019-03-12T02:15:44.810Z,90.30
2019-03-12T02:18:12.682Z,90.20
2019-03-12T02:20:41.552Z,90.00
2019-03-12T02:23:10.384Z,90.10
2019-03-12T02:25:39.284Z,90.00
2019-03-12T02:28:08.161Z,89.80
2019-03-12T02:30:37.057Z,89.90
2019-03-12T02:33:05.983Z,89.60
2019-03-12T02:35:34.830Z,89.30
2019-03-12T02:38:03.683Z,88.80
2019-03-12T02:40:34.059Z,89.10
2019-03-12T02:43:02.916Z,89.60
2019-03-12T02:45:31.804Z,90.20
2019-03-12T02:48:00.718Z,90.40
2019-03-12T02:50:29.586Z,90.30
2019-03-12T02:52:58.455Z,90.20
2019-03-12T02:55:27.590Z,90.30
2019-03-12T02:57:56.457Z,90.10
2019-03-12T03:00:26.953Z,90.20
2019-03-12T03:02:55.927Z,90.20
2019-03-12T03:05:24.749Z,90.20
2019-03-12T03:07:55.156Z,90.20
2019-03-12T03:10:24.255Z,90.10
2019-03-12T03:12:53.107Z,90.10
2019-03-12T03:15:24.212Z,90.00
2019-03-12T03:17:53.228Z,90.00
2019-03-12T03:20:22.098Z,89.80
2019-03-12T03:22:50.959Z,89.30
2019-03-12T03:25:19.890Z,90.00
2019-03-12T03:27:48.744Z,90.50
2019-03-12T03:30:36.913Z,90.90
2019-03-12T03:33:05.914Z,91.20
2019-03-12T03:35:34.923Z,91.10
2019-03-12T03:38:03.830Z,91.00
2019-03-12T03:40:32.709Z,91.10
2019-03-12T03:43:01.587Z,91.30
2019-03-12T03:45:30.474Z,91.30
2019-03-12T03:47:59.344Z,91.20
2019-03-12T03:50:28.198Z,91.10
2019-03-12T03:52:57.094Z,91.30
2019-03-12T03:55:25.937Z,91.30
2019-03-12T03:57:54.794Z,91.40
2019-03-12T04:00:24.810Z,91.60
2019-03-12T04:02:53.700Z,91.60
2019-03-12T04:05:22.613Z,91.50
2019-03-12T04:07:51.745Z,91.50
2019-03-12T04:10:20.594Z,91.30
2019-03-12T04:12:49.446Z,91.10
2019-03-12T04:15:19.280Z,90.90
2019-03-12T04:17:49.002Z,90.80
2019-03-12T04:20:18.967Z,90.40
2019-03-12T04:22:47.936Z,90.30
2019-03-12T04:25:16.783Z,90.10
2019-03-12T04:27:45.643Z,90.10
2019-03-12T04:30:18.629Z,90.20
2019-03-12T04:32:47.490Z,90.50
2019-03-12T04:35:22.061Z,90.60
2019-03-12T04:37:50.943Z,90.50
2019-03-12T04:40:19.817Z,90.80
2019-03-12T04:42:48.725Z,91.20
2019-03-12T04:45:18.184Z,90.90
2019-03-12T04:47:47.055Z,91.10
2019-03-12T04:50:16.051Z,91.20
2019-03-12T04:52:44.926Z,91.60
2019-03-12T04:55:15.897Z,91.50
2019-03-12T04:57:44.919Z,91.40
2019-03-12T05:00:16.061Z,91.40
2019-03-12T05:02:44.913Z,91.40
2019-03-12T05:05:14.472Z,91.50
2019-03-12T05:07:43.339Z,91.50
2019-03-12T05:10:16.597Z,91.50
2019-03-12T05:12:45.496Z,91.20
2019-03-12T05:15:20.469Z,91.20
2019-03-12T05:17:49.418Z,91.00
2019-03-12T05:20:18.419Z,91.10
2019-03-12T05:22:47.272Z,91.40
2019-03-12T05:25:16.277Z,91.20
2019-03-12T05:27:45.240Z,91.10
2019-03-12T05:30:16.499Z,91.20
2019-03-12T05:32:45.425Z,91.30
2019-03-12T05:35:14.578Z,91.20
2019-03-12T05:37:43.464Z,91.40
2019-03-12T05:40:18.430Z,91.40
2019-03-12T05:42:47.416Z,91.30
2019-03-12T05:45:18.815Z,91.30
2019-03-12T05:47:47.718Z,91.50
2019-03-12T05:50:21.427Z,90.40
2019-03-12T05:52:50.264Z,90.40
2019-03-12T05:55:19.273Z,90.50
2019-03-12T05:57:48.135Z,90.80
2019-03-12T06:00:25.194Z,90.90
2019-03-12T06:02:54.124Z,90.90
2019-03-12T06:05:24.451Z,90.50
2019-03-12T06:07:55.509Z,90.30
2019-03-12T06:10:23.903Z,90.20
2019-03-12T06:12:52.775Z,90.00
2019-03-12T06:15:21.707Z,89.50
2019-03-12T06:17:50.569Z,88.90
2019-03-12T06:20:19.434Z,89.20
2019-03-12T06:22:48.354Z,89.40
2019-03-12T06:25:17.314Z,89.90
2019-03-12T06:27:46.189Z,90.00
2019-03-12T06:30:19.375Z,89.90
2019-03-12T06:32:50.276Z,89.00
2019-03-12T06:35:20.709Z,88.30
2019-03-12T06:38:03.266Z,88.10
2019-03-12T06:40:33.735Z,87.50
2019-03-12T06:43:20.503Z,87.50
2019-03-12T06:45:54.119Z,87.50
2019-03-12T06:48:33.700Z,87.50
2019-03-12T06:51:09.724Z,87.30
2019-03-12T06:53:40.233Z,86.40
2019-03-12T06:56:10.712Z,85.90
2019-03-12T06:58:57.735Z,85.60
2019-03-12T07:01:44.759Z,85.30
2019-03-12T07:04:30.377Z,86.00
2019-03-12T07:07:12.898Z,86.40
2019-03-12T07:09:43.527Z,85.90
2019-03-12T07:12:16.775Z,85.30
2019-03-12T07:14:49.997Z,84.80
2019-03-12T07:17:20.426Z,85.20
2019-03-12T07:19:53.347Z,85.30
2019-03-12T07:22:35.512Z,83.90
2019-03-12T07:25:09.072Z,84.50
2019-03-12T07:27:56.021Z,84.70
2019-03-12T07:30:26.541Z,84.70
2019-03-12T07:33:00.095Z,83.80
2019-03-12T07:35:49.023Z,84.30
2019-03-12T07:38:37.334Z,84.10
2019-03-12T07:41:25.182Z,82.20
2019-03-12T07:44:00.988Z,82.80
2019-03-12T07:46:46.397Z,83.30
2019-03-12T07:49:35.256Z,82.80
2019-03-12T07:52:08.671Z,82.00
2019-03-12T07:54:49.612Z,81.20
2019-03-12T07:57:22.585Z,80.80
2019-03-12T07:59:52.997Z,80.50
2019-03-12T08:02:26.718Z,81.80
2019-03-12T08:05:03.320Z,82.00
2019-03-12T08:07:50.387Z,82.70
2019-03-12T08:10:30.178Z,82.00
2019-03-12T08:13:17.621Z,83.20
2019-03-12T08:15:50.824Z,82.90
2019-03-12T08:18:36.408Z,82.70
2019-03-12T08:21:25.355Z,83.20
2019-03-12T08:24:13.609Z,82.50
2019-03-12T08:26:55.316Z,82.10
2019-03-12T08:29:25.807Z,82.70
2019-03-12T08:32:14.542Z,83.50
2019-03-12T08:34:45.008Z,84.20
2019-03-12T08:37:27.263Z,83.50
2019-03-12T08:40:09.884Z,84.20
2019-03-12T08:42:53.718Z,84.70
2019-03-12T08:45:21.481Z,85.30
2019-03-12T08:47:57.899Z,83.30
2019-03-12T08:50:28.351Z,83.40
2019-03-12T08:53:04.562Z,83.60
2019-03-12T08:55:43.820Z,83.60
2019-03-12T08:58:30.432Z,82.30
2019-03-12T09:01:03.723Z,82.30
2019-03-12T09:03:34.128Z,82.30
2019-03-12T09:06:06.198Z,82.70
2019-03-12T09:08:48.881Z,82.60
2019-03-12T09:11:36.659Z,82.80
2019-03-12T09:14:10.096Z,82.80
2019-03-12T09:16:40.531Z,82.50
2019-03-12T09:19:20.426Z,83.50
2019-03-12T09:21:53.691Z,83.20
2019-03-12T09:24:28.043Z,82.40
2019-03-12T09:27:01.209Z,81.90
2019-03-12T09:29:31.710Z,80.70
2019-03-12T09:32:19.988Z,79.20
2019-03-12T09:34:59.547Z,78.70
2019-03-12T09:37:38.792Z,76.60
2019-03-12T09:40:13.877Z,74.20
2019-03-12T09:42:46.780Z,63.80
2019-03-12T09:45:17.248Z,55.80
2019-03-12T09:48:03.896Z,46.50
2019-03-12T09:50:34.357Z,47.40
2019-03-12T09:53:10.774Z,48.10
2019-03-12T09:55:41.199Z,47.90
2019-03-12T09:58:24.015Z,52.60
2019-03-12T10:01:00.487Z,61.50
2019-03-12T10:03:33.715Z,67.30
2019-03-12T10:06:10.082Z,70.70
2019-03-12T10:08:46.550Z,72.90
2019-03-12T10:11:16.985Z,74.40
2019-03-12T10:13:47.401Z,75.30
2019-03-12T10:16:23.941Z,75.60
2019-03-12T10:18:54.371Z,76.70
2019-03-12T10:21:24.822Z,79.00
2019-03-12T10:24:10.727Z,78.20
2019-03-12T10:26:41.137Z,77.40
2019-03-12T10:29:17.805Z,76.30
2019-03-12T10:31:49.049Z,76.00
2019-03-12T10:34:35.920Z,75.70
2019-03-12T10:37:11.793Z,76.40
2019-03-12T10:40:15.716Z,75.20
2019-03-12T10:43:00.341Z,74.80
2019-03-12T10:45:30.994Z,75.40
2019-03-12T10:48:10.708Z,76.60
2019-03-12T10:50:39.647Z,77.00
2019-03-12T10:53:08.484Z,76.60
2019-03-12T10:55:37.348Z,75.50
2019-03-12T10:58:06.277Z,75.40
2019-03-12T11:00:35.652Z,74.60
2019-03-12T11:03:04.618Z,74.20
2019-03-12T11:05:45.460Z,72.10
2019-03-12T11:08:06.720Z,71.30
2019-03-12T11:10:34.637Z,69.00
2019-03-12T11:13:03.680Z,67.00
2019-03-12T11:15:32.519Z,65.40
2019-03-12T11:18:01.385Z,65.80
2019-03-12T11:20:30.313Z,66.10
2019-03-12T11:22:59.252Z,66.80
2019-03-12T11:25:28.443Z,66.10
2019-03-12T11:27:59.133Z,63.00
2019-03-12T11:30:28.065Z,60.90
2019-03-12T11:32:57.767Z,61.70
2019-03-12T11:35:26.717Z,60.30
2019-03-12T11:37:55.566Z,63.00
2019-03-12T11:40:31.626Z,62.80
2019-03-12T11:42:56.941Z,63.20
2019-03-12T11:45:35.456Z,64.30
2019-03-12T11:47:56.284Z,66.50
2019-03-12T11:50:26.196Z,65.20
2019-03-12T11:52:58.252Z,64.70
2019-03-12T11:55:25.574Z,66.10
2019-03-12T11:57:54.490Z,66.70
2019-03-12T12:00:25.946Z,66.90
2019-03-12T12:02:59.895Z,67.70
2019-03-12T12:05:25.418Z,67.80
2019-03-12T12:07:54.314Z,66.60
2019-03-12T12:10:23.362Z,64.90
2019-03-12T12:12:52.332Z,62.60
2019-03-12T12:15:21.158Z,62.80
2019-03-12T12:17:50.031Z,61.10
2019-03-12T12:20:28.824Z,61.70
2019-03-12T12:22:49.526Z,61.50
2019-03-12T12:25:19.892Z,62.30
2019-03-12T12:27:48.816Z,62.70
2019-03-12T12:30:21.760Z,63.50
2019-03-12T12:32:50.704Z,63.50
2019-03-12T12:35:19.957Z,64.30
2019-03-12T12:37:48.807Z,65.10
2019-03-12T12:40:20.642Z,63.80
2019-03-12T12:42:49.568Z,64.80
2019-03-12T12:45:24.384Z,64.60
2019-03-12T12:47:53.214Z,61.20
2019-03-12T12:50:22.489Z,60.00
2019-03-12T12:52:51.360Z,60.40
2019-03-12T12:55:20.222Z,63.00
2019-03-12T12:57:49.110Z,63.20
2019-03-12T13:00:22.667Z,62.70
2019-03-12T13:02:51.518Z,64.40
2019-03-12T13:05:20.519Z,64.60
2019-03-12T13:07:49.370Z,63.30
2019-03-12T13:10:28.760Z,65.60
2019-03-12T13:12:57.586Z,64.10
2019-03-12T13:15:26.453Z,62.60
2019-03-12T13:17:55.335Z,62.20
2019-03-12T13:20:24.193Z,62.00
2019-03-12T13:22:53.035Z,63.20
2019-03-12T13:25:21.926Z,64.40
2019-03-12T13:27:51.762Z,64.70
2019-03-12T13:30:28.394Z,63.90
2019-03-12T13:32:57.229Z,64.10
2019-03-12T13:35:26.084Z,63.10
2019-03-12T13:37:55.082Z,61.00
2019-03-12T13:40:25.613Z,59.60
2019-03-12T13:42:54.698Z,60.20
2019-03-12T13:45:26.355Z,59.50
2019-03-12T13:47:55.939Z,60.20
2019-03-12T13:50:25.062Z,59.50
2019-03-12T13:52:53.924Z,60.60
2019-03-12T13:55:22.876Z,59.50
2019-03-12T13:57:51.784Z,61.90
2019-03-12T14:00:22.999Z,59.50
2019-03-12T14:02:52.069Z,60.10
2019-03-12T14:05:20.907Z,59.40
2019-03-12T14:07:49.795Z,60.50
2019-03-12T14:10:25.399Z,59.80
2019-03-12T14:12:55.307Z,57.90
2019-03-12T14:15:31.387Z,58.80
2019-03-12T14:18:00.845Z,59.20
2019-03-12T14:20:43.884Z,58.60
2019-03-12T14:23:18.232Z,57.00
2019-03-12T14:25:47.142Z,56.70
2019-03-12T14:28:16.017Z,55.80
2019-03-12T14:30:44.890Z,55.70
2019-03-12T14:33:13.746Z,55.10
2019-03-12T14:35:51.283Z,55.60
2019-03-12T14:38:13.365Z,55.50
2019-03-12T14:40:42.314Z,55.20
2019-03-12T14:43:11.256Z,55.40
2019-03-12T14:45:42.801Z,55.00
2019-03-12T14:48:43.734Z,54.40
2019-03-12T14:51:18.561Z,54.70
2019-03-12T14:53:50.350Z,52.30
2019-03-12T14:56:19.411Z,51.80
2019-03-12T14:58:51.174Z,51.40
2019-03-12T15:01:18.828Z,51.70
2019-03-12T15:03:47.674Z,52.20
2019-03-12T15:06:16.586Z,51.30
2019-03-12T15:08:45.415Z,51.70
2019-03-12T15:11:14.285Z,52.60
2019-03-12T15:13:43.179Z,52.60
2019-03-12T15:16:11.990Z,53.50
2019-03-12T15:18:40.803Z,55.50
2019-03-12T15:21:09.813Z,57.30
2019-03-12T15:23:38.665Z,58.40
2019-03-12T15:26:07.605Z,59.00
2019-03-12T15:28:36.528Z,58.60
2019-03-12T15:31:05.390Z,58.70
2019-03-12T15:33:34.238Z,58.00
2019-03-12T15:36:03.177Z,57.70
2019-03-12T15:38:32.049Z,58.30
2019-03-12T15:41:00.915Z,58.70
2019-03-12T15:43:29.989Z,58.40
2019-03-12T15:45:58.861Z,58.00
2019-03-12T15:48:27.692Z,56.50
2019-03-12T15:50:56.609Z,54.90
2019-03-12T15:53:25.428Z,55.60
2019-03-12T15:55:55.784Z,57.40
2019-03-12T15:58:24.842Z,57.90
2019-03-12T16:00:53.673Z,56.60
2019-03-12T16:03:22.525Z,56.60
2019-03-12T16:05:51.450Z,57.30
2019-03-12T16:08:20.303Z,57.30
2019-03-12T16:10:58.102Z,57.90
2019-03-12T16:13:19.692Z,58.00
2019-03-12T16:15:48.556Z,57.90
2019-03-12T16:18:17.405Z,58.30
2019-03-12T16:20:46.291Z,58.50
2019-03-12T16:23:15.661Z,58.60
2019-03-12T16:25:44.524Z,59.30
2019-03-12T16:28:13.638Z,58.90
2019-03-12T16:30:42.496Z,59.80
2019-03-12T16:33:11.343Z,61.30
2019-03-12T16:35:40.196Z,64.20
2019-03-12T16:38:08.984Z,65.20
2019-03-12T16:40:37.885Z,65.60
2019-03-12T16:43:06.791Z,67.30
2019-03-12T16:45:35.651Z,67.50
2019-03-12T16:48:04.501Z,67.80
2019-03-12T16:50:33.406Z,68.90
2019-03-12T16:53:02.248Z,69.00
2019-03-12T16:55:31.114Z,68.80
2019-03-12T16:57:59.978Z,69.30
2019-03-12T17:00:28.839Z,69.00
2019-03-12T17:02:57.698Z,69.60
2019-03-12T17:05:26.663Z,70.20
2019-03-12T17:07:55.654Z,70.50
2019-03-12T17:10:24.505Z,70.90
2019-03-12T17:12:53.432Z,71.20
2019-03-12T17:15:23.688Z,71.90
2019-03-12T17:17:52.545Z,72.00
2019-03-12T17:20:21.558Z,72.40
2019-03-12T17:22:50.484Z,72.50
2019-03-12T17:25:19.349Z,72.60
2019-03-12T17:27:51.214Z,72.80
2019-03-12T17:30:20.040Z,73.00
2019-03-12T17:32:48.916Z,73.10
2019-03-12T17:35:29.896Z,73.40
2019-03-12T17:37:58.759Z,73.50
2019-03-12T17:40:27.634Z,74.00
2019-03-12T17:42:56.529Z,73.80
2019-03-12T17:45:25.398Z,73.80
2019-03-12T17:47:54.251Z,74.00
2019-03-12T17:50:23.141Z,73.80
2019-03-12T17:52:51.972Z,74.00
2019-03-12T17:55:20.852Z,74.40
2019-03-12T17:57:50.940Z,74.30
2019-03-12T18:00:34.473Z,74.30
2019-03-12T18:03:03.387Z,74.40
2019-03-12T18:05:32.340Z,74.50
2019-03-12T18:08:01.193Z,74.90
2019-03-12T18:10:30.101Z,75.70
2019-03-12T18:12:58.967Z,76.50
2019-03-12T18:15:27.831Z,77.10
2019-03-12T18:17:56.753Z,77.60
2019-03-12T18:20:25.613Z,78.10
2019-03-12T18:22:54.472Z,78.70
2019-03-12T18:25:32.212Z,78.90
2019-03-12T18:28:01.045Z,79.30
2019-03-12T18:30:29.893Z,79.40
2019-03-12T18:32:58.838Z,79.50
2019-03-12T18:35:27.710Z,79.60
2019-03-12T18:37:56.567Z,79.80
2019-03-12T18:40:26.861Z,80.20
2019-03-12T18:42:55.729Z,80.70
2019-03-12T18:45:33.969Z,80.30
2019-03-12T18:48:02.811Z,80.50
2019-03-12T18:50:31.675Z,80.30
2019-03-12T18:53:00.595Z,80.50
2019-03-12T18:55:38.208Z,80.70
2019-03-12T18:58:07.465Z,80.80
2019-03-12T19:00:37.837Z,80.60
2019-03-12T19:03:06.738Z,80.60
2019-03-12T19:05:35.621Z,80.40
2019-03-12T19:08:04.467Z,80.50
2019-03-12T19:10:33.343Z,80.90
2019-03-12T19:13:02.264Z,81.30
2019-03-12T19:15:31.099Z,81.40
2019-03-12T19:17:59.968Z,81.70
2019-03-12T19:20:28.854Z,82.00
2019-03-12T19:22:57.723Z,82.10
2019-03-12T19:25:38.105Z,82.30
2019-03-12T19:28:06.513Z,82.30
2019-03-12T19:30:35.473Z,82.90
2019-03-12T19:33:07.185Z,83.10
2019-03-12T19:35:36.067Z,83.30
2019-03-12T19:38:05.314Z,83.40
2019-03-12T19:40:45.794Z,83.60
2019-03-12T19:43:14.658Z,83.70
2019-03-12T19:45:44.721Z,83.30
2019-03-12T19:48:13.840Z,83.50
2019-03-12T19:50:42.673Z,83.60
2019-03-12T19:53:11.531Z,84.00
2019-03-12T19:55:49.216Z,84.40
2019-03-12T19:58:18.082Z,84.60
2019-03-12T20:00:48.338Z,84.90
2019-03-12T20:03:18.132Z,85.30
2019-03-12T20:05:46.997Z,85.50
2019-03-12T20:08:15.833Z,85.70
2019-03-12T20:10:59.949Z,85.80
2019-03-12T20:13:43.807Z,85.90
2019-03-12T20:16:30.724Z,86.00
2019-03-12T20:19:22.333Z,86.20
2019-03-12T20:22:03.249Z,86.40
2019-03-12T20:24:47.286Z,86.60
2019-03-12T20:27:38.738Z,87.20
2019-03-12T20:30:16.464Z,86.90
2019-03-12T20:33:04.782Z,87.00
2019-03-12T20:36:09.794Z,87.00
2019-03-12T20:39:05.405Z,86.90
2019-03-12T20:42:12.136Z,86.60
2019-03-12T20:44:58.905Z,86.60
2019-03-12T20:48:02.350Z,87.10
2019-03-12T20:50:52.122Z,87.50
2019-03-12T20:53:55.622Z,88.00
2019-03-12T20:56:33.560Z,88.00
2019-03-12T20:59:20.322Z,87.80
2019-03-12T21:02:18.695Z,88.00
2019-03-12T21:05:19.428Z,88.00
2019-03-12T21:08:21.504Z,88.20
2019-03-12T21:11:26.767Z,88.30
2019-03-12T21:14:24.482Z,88.50
2019-03-12T21:17:23.590Z,88.60
2019-03-12T21:20:16.327Z,88.70
2019-03-12T21:22:56.998Z,88.60
2019-03-12T21:25:34.831Z,88.60
2019-03-12T21:28:25.100Z,88.90
2019-03-12T21:30:54.024Z,88.90
2019-03-12T21:33:22.890Z,89.10
2019-03-12T21:35:51.718Z,89.20
2019-03-12T21:38:20.691Z,89.40
2019-03-12T21:40:49.791Z,89.50
2019-03-12T21:43:18.652Z,89.30
2019-03-12T21:45:47.652Z,89.40
2019-03-12T21:48:16.949Z,89.70
2019-03-12T21:50:45.785Z,89.70
2019-03-12T21:53:16.401Z,89.70
2019-03-12T21:55:45.292Z,89.30
2019-03-12T21:58:14.155Z,89.00
2019-03-12T22:00:43.086Z,89.00
2019-03-12T22:03:11.940Z,89.30
2019-03-12T22:05:40.871Z,89.20
2019-03-12T22:08:09.790Z,89.60
2019-03-12T22:10:38.646Z,89.80
2019-03-12T22:13:07.532Z,89.80
2019-03-12T22:15:36.550Z,89.90
2019-03-12T22:18:05.400Z,90.00
2019-03-12T22:20:34.245Z,90.10
2019-03-12T22:23:07.707Z,90.10
2019-03-12T22:25:36.571Z,90.00
2019-03-12T22:28:05.425Z,90.10
2019-03-12T22:30:34.335Z,90.20
2019-03-12T22:33:03.178Z,90.40
2019-03-12T22:35:32.029Z,90.30
2019-03-12T22:38:00.979Z,90.10
2019-03-12T22:40:29.831Z,90.10
2019-03-12T22:42:58.694Z,90.20
2019-03-12T22:45:27.590Z,90.10
2019-03-12T22:47:56.434Z,90.10
2019-03-12T22:50:26.188Z,90.20
2019-03-12T22:52:55.116Z,90.50
2019-03-12T22:55:23.951Z,90.10
2019-03-12T22:57:52.837Z,90.10
2019-03-12T23:00:21.962Z,90.20
2019-03-12T23:02:50.803Z,90.20
2019-03-12T23:05:19.666Z,90.20
2019-03-12T23:07:48.553Z,90.50
2019-03-12T23:10:18.403Z,90.20
2019-03-12T23:12:47.268Z,90.00
2019-03-12T23:15:17.561Z,90.00
2019-03-12T23:17:46.499Z,90.20
2019-03-12T23:20:17.552Z,90.30
2019-03-12T23:22:46.484Z,90.40
2019-03-12T23:25:15.444Z,90.60
2019-03-12T23:27:44.292Z,90.50
2019-03-12T23:30:21.111Z,90.30
2019-03-12T23:32:50.273Z,90.20
2019-03-12T23:35:19.236Z,90.50
2019-03-12T23:37:48.145Z,90.60
2019-03-12T23:40:18.306Z,90.70
2019-03-12T23:42:47.260Z,90.30
2019-03-12T23:45:17.853Z,90.10
2019-03-12T23:47:50.007Z,89.80
2019-03-12T23:50:18.316Z,89.60
2019-03-12T23:52:47.414Z,89.80
2019-03-12T23:55:17.943Z,89.90
2019-03-12T23:57:46.809Z,90.00
